createdAt,value
2023-05-06T00:02:05.246Z,98635.55
2023-05-06T00:04:38.514Z,98630.95
2023-05-06T00:07:11.830Z,98619.61
2023-05-06T00:09:44.013Z,98614.61
2023-05-06T00:12:16.236Z,98619.30
2023-05-06T00:14:51.108Z,98619.02
2023-05-06T00:17:23.308Z,98620.50
2023-05-06T00:19:56.195Z,98623.91
2023-05-06T00:22:28.405Z,98618.63
2023-05-06T00:25:00.553Z,98610.33
2023-05-06T00:27:32.725Z,98609.92
2023-05-06T00:30:05.036Z,98609.80
2023-05-06T00:32:37.184Z,98604.70
2023-05-06T00:35:10.969Z,98600.55
2023-05-06T00:37:45.930Z,98602.73
2023-05-06T00:40:18.395Z,98602.65
2023-05-06T00:42:53.607Z,98602.85
2023-05-06T00:45:26.788Z,98598.70
2023-05-06T00:47:59.764Z,98598.83
2023-05-06T00:50:33.320Z,98599.83
2023-05-06T00:53:10.295Z,98600.44
2023-05-06T00:55:42.584Z,98597.44
2023-05-06T00:58:16.067Z,98593.05
2023-05-06T01:00:52.368Z,98587.92
2023-05-06T01:03:27.316Z,98588.08
2023-05-06T01:06:08.932Z,98588.41
2023-05-06T01:08:48.889Z,98585.91
2023-05-06T01:11:35.349Z,98587.06
2023-05-06T01:14:15.156Z,98582.90
2023-05-06T01:16:49.351Z,98582.09
2023-05-06T01:19:38.997Z,98585.84
2023-05-06T01:22:12.819Z,98581.36
2023-05-06T01:24:46.723Z,98582.54
2023-05-06T01:27:19.634Z,98579.27
2023-05-06T01:29:52.076Z,98574.73
2023-05-06T01:32:35.037Z,98573.51
2023-05-06T01:35:13.524Z,98575.38
2023-05-06T01:37:53.603Z,98562.78
2023-05-06T01:40:30.374Z,98561.34
2023-05-06T01:43:03.806Z,98557.70
2023-05-06T01:45:37.665Z,98556.39
2023-05-06T01:48:10.871Z,98555.47
2023-05-06T01:50:44.472Z,98555.86
2023-05-06T01:53:16.601Z,98552.77
2023-05-06T01:55:49.609Z,98548.36
2023-05-06T01:58:22.326Z,98552.13
2023-05-06T02:00:54.814Z,98561.84
2023-05-06T02:03:27.057Z,98554.85
2023-05-06T02:05:59.462Z,98550.45
2023-05-06T02:08:32.511Z,98546.20
2023-05-06T02:11:07.460Z,98548.08
2023-05-06T02:13:40.030Z,98547.42
2023-05-06T02:16:13.866Z,98546.41
2023-05-06T02:18:46.140Z,98544.66
2023-05-06T02:21:18.350Z,98547.23
2023-05-06T02:23:50.813Z,98544.34
2023-05-06T02:26:23.130Z,98540.69
2023-05-06T02:28:55.497Z,98539.19
2023-05-06T02:31:27.855Z,98531.10
2023-05-06T02:33:59.992Z,98534.35
2023-05-06T02:36:32.499Z,98529.84
2023-05-06T02:39:05.728Z,98530.85
2023-05-06T02:41:37.868Z,98532.21
2023-05-06T02:44:10.052Z,98533.59
2023-05-06T02:46:43.692Z,98532.91
2023-05-06T02:49:20.575Z,98532.05
2023-05-06T02:51:55.841Z,98525.21
2023-05-06T02:54:28.353Z,98528.20
2023-05-06T02:57:01.595Z,98530.73
2023-05-06T02:59:33.694Z,98526.86
2023-05-06T03:02:05.922Z,98531.64
2023-05-06T03:04:38.393Z,98529.14
2023-05-06T03:07:10.951Z,98522.92
2023-05-06T03:09:43.090Z,98525.19
2023-05-06T03:12:16.247Z,98526.13
2023-05-06T03:14:48.460Z,98527.27
2023-05-06T03:17:20.684Z,98525.90
2023-05-06T03:19:53.365Z,98524.43
2023-05-06T03:22:26.169Z,98520.16
2023-05-06T03:24:58.496Z,98515.54
2023-05-06T03:27:32.790Z,98509.33
2023-05-06T03:30:09.732Z,98510.67
2023-05-06T03:32:43.001Z,98511.30
2023-05-06T03:35:17.237Z,98511.29
2023-05-06T03:37:51.023Z,98518.59
2023-05-06T03:40:24.259Z,98516.30
2023-05-06T03:42:57.158Z,98512.43
2023-05-06T03:45:29.743Z,98512.94
2023-05-06T03:48:02.674Z,98516.86
2023-05-06T03:50:35.928Z,98516.24
2023-05-06T03:53:08.206Z,98521.85
2023-05-06T03:55:40.664Z,98521.73
2023-05-06T03:58:13.070Z,98520.36
2023-05-06T04:00:46.195Z,98518.48
2023-05-06T04:03:18.358Z,98517.60
2023-05-06T04:05:53.074Z,98515.99
2023-05-06T04:08:28.397Z,98515.98
2023-05-06T04:11:07.085Z,98515.58
2023-05-06T04:13:39.678Z,98518.30
2023-05-06T04:16:16.426Z,98519.06
2023-05-06T04:18:51.778Z,98518.86
2023-05-06T04:21:24.622Z,98518.83
2023-05-06T04:24:02.569Z,98521.57
2023-05-06T04:26:40.246Z,98522.15
2023-05-06T04:29:12.697Z,98520.84
2023-05-06T04:31:51.570Z,98518.63
2023-05-06T04:34:25.263Z,98521.14
2023-05-06T04:36:58.268Z,98523.46
2023-05-06T04:39:50.667Z,98514.14
2023-05-06T04:42:24.287Z,98515.95
2023-05-06T04:45:04.341Z,98514.75
2023-05-06T04:47:37.302Z,98512.66
2023-05-06T04:50:11.143Z,98505.55
2023-05-06T04:52:43.264Z,98503.84
2023-05-06T04:55:15.961Z,98503.72
2023-05-06T04:57:51.865Z,98499.14
2023-05-06T05:00:26.353Z,98503.88
2023-05-06T05:02:58.936Z,98501.23
2023-05-06T05:05:32.214Z,98501.93
2023-05-06T05:08:04.572Z,98507.24
2023-05-06T05:10:37.173Z,98502.61
2023-05-06T05:13:09.760Z,98499.69
2023-05-06T05:15:42.274Z,98495.50
2023-05-06T05:18:14.742Z,98493.71
2023-05-06T05:20:47.152Z,98491.39
2023-05-06T05:23:20.958Z,98482.95
2023-05-06T05:25:56.003Z,98474.98
2023-05-06T05:28:28.732Z,98469.95
2023-05-06T05:31:06.336Z,98464.11
2023-05-06T05:33:42.545Z,98461.91
2023-05-06T05:36:17.798Z,98454.81
2023-05-06T05:38:50.358Z,98455.14
2023-05-06T05:41:22.782Z,98442.46
2023-05-06T05:43:55.366Z,98436.67
2023-05-06T05:46:28.108Z,98433.41
2023-05-06T05:49:01.124Z,98431.54
2023-05-06T05:51:33.739Z,98427.91
2023-05-06T05:54:07.171Z,98430.23
2023-05-06T05:56:39.390Z,98428.33
2023-05-06T05:59:14.778Z,98424.37
2023-05-06T06:01:47.123Z,98426.80
2023-05-06T06:04:19.575Z,98420.20
2023-05-06T06:06:52.203Z,98420.32
2023-05-06T06:09:25.017Z,98416.85
2023-05-06T06:11:57.952Z,98415.18
2023-05-06T06:14:30.444Z,98415.61
2023-05-06T06:17:03.818Z,98414.68
2023-05-06T06:19:36.025Z,98410.89
2023-05-06T06:22:08.312Z,98407.90
2023-05-06T06:24:41.187Z,98408.98
2023-05-06T06:27:13.402Z,98409.05
2023-05-06T06:29:45.760Z,98403.04
2023-05-06T06:32:18.056Z,98393.13
2023-05-06T06:34:50.481Z,98389.09
2023-05-06T06:37:22.639Z,98385.38
2023-05-06T06:39:54.841Z,98393.48
2023-05-06T06:42:27.345Z,98403.23
2023-05-06T06:45:16.985Z,98401.56
2023-05-06T06:47:49.687Z,98401.75
2023-05-06T06:50:22.275Z,98400.91
2023-05-06T06:53:02.047Z,98397.48
2023-05-06T06:55:38.571Z,98393.95
2023-05-06T06:58:10.924Z,98387.89
2023-05-06T07:00:42.962Z,98385.31
2023-05-06T07:03:20.561Z,98381.68
2023-05-06T07:05:52.787Z,98382.63
2023-05-06T07:08:24.918Z,98382.51
2023-05-06T07:10:59.911Z,98381.09
2023-05-06T07:13:33.824Z,98384.67
2023-05-06T07:16:10.252Z,98388.37
2023-05-06T07:18:42.440Z,98389.68
2023-05-06T07:21:14.526Z,98387.25
2023-05-06T07:23:46.683Z,98389.42
2023-05-06T07:26:18.816Z,98382.98
2023-05-06T07:28:50.994Z,98381.40
2023-05-06T07:31:23.231Z,98382.29
2023-05-06T07:33:56.283Z,98382.14
2023-05-06T07:36:28.832Z,98372.95
2023-05-06T07:39:01.229Z,98368.68
2023-05-06T07:41:33.390Z,98362.86
2023-05-06T07:44:06.030Z,98360.38
2023-05-06T07:46:38.536Z,98357.23
2023-05-06T07:49:10.726Z,98354.15
2023-05-06T07:51:46.053Z,98347.13
2023-05-06T07:54:18.398Z,98342.67
2023-05-06T07:56:50.452Z,98343.58
2023-05-06T07:59:22.543Z,98341.88
2023-05-06T08:01:54.585Z,98339.96
2023-05-06T08:04:26.650Z,98338.05
2023-05-06T08:06:58.725Z,98337.71
2023-05-06T08:09:31.158Z,98338.63
2023-05-06T08:12:03.227Z,98335.92
2023-05-06T08:14:35.366Z,98333.54
2023-05-06T08:17:07.478Z,98332.86
2023-05-06T08:19:39.624Z,98334.46
2023-05-06T08:22:11.765Z,98335.79
2023-05-06T08:24:43.885Z,98334.00
2023-05-06T08:27:16.008Z,98338.98
2023-05-06T08:29:52.226Z,98330.49
2023-05-06T08:32:24.770Z,98325.83
2023-05-06T08:34:56.951Z,98324.67
2023-05-06T08:37:30.593Z,98325.10
2023-05-06T08:40:03.131Z,98329.36
2023-05-06T08:42:37.973Z,98321.16
2023-05-06T08:45:12.934Z,98319.73
2023-05-06T08:47:45.191Z,98316.24
2023-05-06T08:50:17.832Z,98315.48
2023-05-06T08:52:51.930Z,98313.80
2023-05-06T08:55:25.543Z,98316.65
2023-05-06T08:58:01.491Z,98313.48
2023-05-06T09:00:34.210Z,98315.36
2023-05-06T09:03:06.851Z,98316.35
2023-05-06T09:05:44.910Z,98312.92
2023-05-06T09:08:17.181Z,98301.15
2023-05-06T09:10:49.934Z,98296.88
2023-05-06T09:13:22.276Z,98287.08
2023-05-06T09:15:56.989Z,98274.65
2023-05-06T09:18:29.362Z,98277.71
2023-05-06T09:21:22.346Z,98278.93
2023-05-06T09:23:57.273Z,98273.71
2023-05-06T09:26:30.777Z,98268.82
2023-05-06T09:29:03.341Z,98274.13
2023-05-06T09:31:41.155Z,98282.81
2023-05-06T09:34:14.334Z,98282.18
2023-05-06T09:36:46.942Z,98274.02
2023-05-06T09:39:19.121Z,98278.42
2023-05-06T09:41:51.417Z,98286.45
2023-05-06T09:44:26.144Z,98304.52
2023-05-06T09:46:58.481Z,98323.53
2023-05-06T09:49:30.653Z,98334.58
2023-05-06T09:52:03.419Z,98333.27
2023-05-06T09:54:36.800Z,98335.80
2023-05-06T09:57:10.668Z,98334.89
2023-05-06T09:59:44.390Z,98337.80
2023-05-06T10:02:17.611Z,98339.84
2023-05-06T10:04:51.816Z,98341.25
2023-05-06T10:07:28.769Z,98342.72
2023-05-06T10:10:02.130Z,98344.94
2023-05-06T10:12:34.421Z,98347.73
2023-05-06T10:15:08.292Z,98358.19
2023-05-06T10:17:42.795Z,98357.52
2023-05-06T10:20:18.370Z,98348.88
2023-05-06T10:22:59.732Z,98355.13
2023-05-06T10:25:36.570Z,98355.68
2023-05-06T10:28:16.064Z,98358.95
2023-05-06T10:31:05.852Z,98368.40
2023-05-06T10:33:40.936Z,98369.67
2023-05-06T10:36:25.360Z,98367.21
2023-05-06T10:39:00.667Z,98366.08
2023-05-06T10:41:33.476Z,98366.49
2023-05-06T10:44:06.218Z,98364.29
2023-05-06T10:47:01.617Z,98357.16
2023-05-06T10:49:33.760Z,98348.48
2023-05-06T10:52:17.114Z,98336.88
2023-05-06T10:54:53.279Z,98329.92
2023-05-06T10:57:27.211Z,98315.89
2023-05-06T11:00:00.136Z,98306.23
2023-05-06T11:02:32.980Z,98299.38
2023-05-06T11:05:07.607Z,98291.55
2023-05-06T11:07:39.954Z,98290.77
2023-05-06T11:10:13.976Z,98287.32
2023-05-06T11:12:53.084Z,98289.16
2023-05-06T11:15:41.390Z,98274.66
2023-05-06T11:18:40.363Z,98268.80
2023-05-06T11:21:39.286Z,98269.56
2023-05-06T11:24:15.061Z,98277.45
2023-05-06T11:26:48.740Z,98270.42
2023-05-06T11:29:21.884Z,98274.17
2023-05-06T11:31:54.476Z,98279.86
2023-05-06T11:34:29.056Z,98278.84
2023-05-06T11:37:06.260Z,98271.75
2023-05-06T11:39:40.935Z,98270.79
2023-05-06T11:42:22.056Z,98268.70
2023-05-06T11:44:56.558Z,98271.20
2023-05-06T11:47:28.715Z,98262.86
2023-05-06T11:50:06.943Z,98265.71
2023-05-06T11:52:40.234Z,98265.52
2023-05-06T11:55:14.473Z,98274.14
2023-05-06T11:57:47.745Z,98280.26
2023-05-06T12:00:21.445Z,98284.08
2023-05-06T12:02:58.375Z,98297.26
2023-05-06T12:05:31.142Z,98308.52
2023-05-06T12:08:13.305Z,98326.02
2023-05-06T12:10:53.482Z,98333.55
2023-05-06T12:13:26.400Z,98334.77
2023-05-06T12:15:59.956Z,98335.34
2023-05-06T12:18:33.434Z,98333.57
2023-05-06T12:21:06.041Z,98332.54
2023-05-06T12:23:38.236Z,98326.77
2023-05-06T12:26:10.521Z,98312.95
2023-05-06T12:28:43.714Z,98311.19
2023-05-06T12:31:23.305Z,98303.72
2023-05-06T12:33:57.124Z,98297.37
2023-05-06T12:36:30.277Z,98300.38
2023-05-06T12:39:03.516Z,98300.27
2023-05-06T12:41:42.960Z,98308.16
2023-05-06T12:44:35.214Z,98313.24
2023-05-06T12:47:09.051Z,98312.95
2023-05-06T12:49:52.169Z,98316.50
2023-05-06T12:52:25.525Z,98308.69
2023-05-06T12:54:58.135Z,98301.36
2023-05-06T12:57:30.422Z,98298.56
2023-05-06T13:00:17.589Z,98293.83
2023-05-06T13:03:19.256Z,98295.66
2023-05-06T13:05:51.992Z,98301.13
2023-05-06T13:08:24.264Z,98297.70
2023-05-06T13:10:56.453Z,98302.32
2023-05-06T13:13:28.904Z,98306.48
2023-05-06T13:16:01.665Z,98314.13
2023-05-06T13:18:34.310Z,98314.80
2023-05-06T13:21:06.852Z,98316.23
2023-05-06T13:23:41.837Z,98311.13
2023-05-06T13:26:17.418Z,98309.45
2023-05-06T13:28:49.759Z,98309.79
2023-05-06T13:31:23.375Z,98310.04
2023-05-06T13:33:55.791Z,98311.23
2023-05-06T13:36:28.461Z,98301.77
2023-05-06T13:39:04.294Z,98295.14
2023-05-06T13:41:36.534Z,98295.26
2023-05-06T13:44:10.641Z,98295.36
2023-05-06T13:46:44.850Z,98294.98
2023-05-06T13:49:19.399Z,98295.31
2023-05-06T13:51:53.091Z,98294.15
2023-05-06T13:54:25.231Z,98292.92
2023-05-06T13:56:58.339Z,98287.69
2023-05-06T13:59:31.188Z,98286.79
2023-05-06T14:02:06.429Z,98283.70
2023-05-06T14:04:41.217Z,98285.48
2023-05-06T14:07:15.769Z,98289.86
2023-05-06T14:09:47.903Z,98283.25
2023-05-06T14:12:20.053Z,98281.20
2023-05-06T14:14:52.212Z,98281.08
2023-05-06T14:17:24.489Z,98281.27
2023-05-06T14:19:56.665Z,98282.39
2023-05-06T14:22:30.164Z,98279.73
2023-05-06T14:25:02.287Z,98281.66
2023-05-06T14:27:34.471Z,98284.02
2023-05-06T14:30:09.691Z,98289.89
2023-05-06T14:32:42.235Z,98292.14
2023-05-06T14:35:14.509Z,98284.77
2023-05-06T14:37:46.654Z,98282.17
2023-05-06T14:40:19.405Z,98284.14
2023-05-06T14:42:51.948Z,98285.84
2023-05-06T14:45:24.509Z,98286.69
2023-05-06T14:47:59.836Z,98290.71
2023-05-06T14:50:32.407Z,98292.27
2023-05-06T14:53:04.526Z,98293.89
2023-05-06T14:55:37.523Z,98286.70
2023-05-06T14:58:09.592Z,98291.44
2023-05-06T15:00:41.628Z,98283.05
2023-05-06T15:03:13.982Z,98283.16
2023-05-06T15:05:46.192Z,98287.86
2023-05-06T15:08:18.376Z,98287.55
2023-05-06T15:10:50.839Z,98284.92
2023-05-06T15:13:23.713Z,98284.27
2023-05-06T15:15:55.934Z,98281.73
2023-05-06T15:18:28.230Z,98285.14
2023-05-06T15:21:01.677Z,98282.21
2023-05-06T15:23:33.994Z,98284.48
2023-05-06T15:26:06.115Z,98285.81
2023-05-06T15:28:38.321Z,98288.27
2023-05-06T15:31:10.468Z,98290.38
2023-05-06T15:33:42.677Z,98297.31
2023-05-06T15:36:14.924Z,98298.23
2023-05-06T15:39:01.465Z,98299.09
2023-05-06T15:41:35.075Z,98295.23
2023-05-06T15:44:09.962Z,98292.90
2023-05-06T15:46:42.426Z,98292.49
2023-05-06T15:49:46.630Z,98290.75
2023-05-06T15:52:07.317Z,98284.12
2023-05-06T15:54:39.990Z,98280.16
2023-05-06T15:57:14.872Z,98273.60
2023-05-06T15:59:48.214Z,98273.27
2023-05-06T16:02:26.431Z,98274.17
2023-05-06T16:04:59.723Z,98274.86
2023-05-06T16:07:32.007Z,98275.83
2023-05-06T16:10:04.180Z,98280.13
2023-05-06T16:12:36.480Z,98284.77
2023-05-06T16:15:10.521Z,98289.57
2023-05-06T16:17:42.665Z,98294.48
2023-05-06T16:20:15.557Z,98288.44
2023-05-06T16:22:52.151Z,98287.79
2023-05-06T16:25:24.231Z,98287.91
2023-05-06T16:27:56.310Z,98290.73
2023-05-06T16:30:28.336Z,98289.65
2023-05-06T16:33:00.656Z,98293.11
2023-05-06T16:35:32.769Z,98298.56
2023-05-06T16:38:04.861Z,98300.35
2023-05-06T16:40:43.635Z,98299.19
2023-05-06T16:43:16.043Z,98296.52
2023-05-06T16:45:48.173Z,98296.63
2023-05-06T16:48:20.303Z,98301.63
2023-05-06T16:50:53.078Z,98302.13
2023-05-06T16:53:27.792Z,98301.45
2023-05-06T16:56:03.088Z,98299.38
2023-05-06T16:58:35.723Z,98299.14
2023-05-06T17:01:08.751Z,98303.61
2023-05-06T17:03:41.189Z,98300.11
2023-05-06T17:06:13.298Z,98295.27
2023-05-06T17:08:45.387Z,98295.92
2023-05-06T17:11:17.777Z,98297.62
2023-05-06T17:13:49.878Z,98294.33
2023-05-06T17:16:22.254Z,98293.08
2023-05-06T17:18:54.731Z,98290.95
2023-05-06T17:21:27.935Z,98293.73
2023-05-06T17:24:01.229Z,98295.38
2023-05-06T17:26:34.976Z,98300.20
2023-05-06T17:29:08.594Z,98297.23
2023-05-06T17:31:41.061Z,98294.91
2023-05-06T17:34:13.118Z,98297.23
2023-05-06T17:36:45.643Z,98296.27
2023-05-06T17:39:18.150Z,98296.69
2023-05-06T17:41:50.440Z,98295.55
2023-05-06T17:44:22.866Z,98299.52
2023-05-06T17:46:54.929Z,98298.52
2023-05-06T17:49:27.092Z,98302.16
2023-05-06T17:51:59.509Z,98304.69
2023-05-06T17:54:34.876Z,98314.45
2023-05-06T17:57:07.319Z,98313.95
2023-05-06T17:59:39.538Z,98320.51
2023-05-06T18:02:15.823Z,98327.52
2023-05-06T18:04:48.468Z,98331.70
2023-05-06T18:07:20.724Z,98331.45
2023-05-06T18:09:53.342Z,98330.23
2023-05-06T18:12:28.798Z,98332.85
2023-05-06T18:15:01.461Z,98332.70
2023-05-06T18:17:34.349Z,98338.67
2023-05-06T18:20:08.361Z,98341.02
2023-05-06T18:22:43.289Z,98346.23
2023-05-06T18:25:16.146Z,98349.52
2023-05-06T18:27:48.624Z,98353.08
2023-05-06T18:30:20.964Z,98355.55
2023-05-06T18:32:56.897Z,98360.23
2023-05-06T18:35:39.641Z,98357.13
2023-05-06T18:38:13.455Z,98361.45
2023-05-06T18:40:46.466Z,98365.57
2023-05-06T18:43:23.262Z,98370.33
2023-05-06T18:45:56.910Z,98376.20
2023-05-06T18:48:32.099Z,98383.22
2023-05-06T18:51:18.938Z,98387.18
2023-05-06T18:54:02.034Z,98388.53
2023-05-06T18:56:34.694Z,98388.97
2023-05-06T18:59:07.303Z,98391.36
2023-05-06T19:01:39.348Z,98397.02
2023-05-06T19:04:12.710Z,98399.65
2023-05-06T19:06:46.829Z,98398.06
2023-05-06T19:09:20.921Z,98398.34
2023-05-06T19:11:53.022Z,98402.83
2023-05-06T19:14:28.259Z,98404.42
2023-05-06T19:17:01.808Z,98408.00
2023-05-06T19:19:36.936Z,98410.66
2023-05-06T19:22:09.644Z,98407.60
2023-05-06T19:24:43.306Z,98412.55
2023-05-06T19:27:18.639Z,98416.24
2023-05-06T19:29:52.570Z,98417.40
2023-05-06T19:32:24.811Z,98418.00
2023-05-06T19:35:05.853Z,98415.33
2023-05-06T19:37:40.863Z,98422.59
2023-05-06T19:40:14.142Z,98419.96
2023-05-06T19:42:46.512Z,98417.72
2023-05-06T19:45:19.599Z,98421.80
2023-05-06T19:47:52.002Z,98415.62
2023-05-06T19:50:24.561Z,98415.52
2023-05-06T19:52:56.748Z,98414.45
2023-05-06T19:55:28.828Z,98412.77
2023-05-06T19:58:01.538Z,98419.84
2023-05-06T20:00:33.777Z,98425.54
2023-05-06T20:03:06.187Z,98431.67
2023-05-06T20:05:40.661Z,98431.17
2023-05-06T20:08:13.802Z,98433.02
2023-05-06T20:10:45.856Z,98437.09
2023-05-06T20:13:18.707Z,98436.92
2023-05-06T20:15:52.879Z,98445.48
2023-05-06T20:18:25.330Z,98445.45
2023-05-06T20:20:57.671Z,98445.58
2023-05-06T20:23:30.783Z,98450.16
2023-05-06T20:26:05.783Z,98450.35
2023-05-06T20:28:39.306Z,98452.80
2023-05-06T20:31:11.565Z,98452.58
2023-05-06T20:33:44.589Z,98451.64
2023-05-06T20:36:16.759Z,98451.98
2023-05-06T20:38:53.992Z,98454.67
2023-05-06T20:41:27.035Z,98455.96
2023-05-06T20:43:59.373Z,98459.77
2023-05-06T20:46:34.463Z,98460.71
2023-05-06T20:49:07.530Z,98469.98
2023-05-06T20:51:42.057Z,98470.72
2023-05-06T20:54:14.462Z,98473.85
2023-05-06T20:56:46.752Z,98475.98
2023-05-06T20:59:18.954Z,98482.29
2023-05-06T21:01:51.700Z,98481.99
2023-05-06T21:04:24.430Z,98482.05
2023-05-06T21:07:00.467Z,98482.55
2023-05-06T21:09:38.253Z,98487.29
2023-05-06T21:12:12.893Z,98483.05
2023-05-06T21:14:45.016Z,98483.84
2023-05-06T21:17:19.493Z,98482.87
2023-05-06T21:19:53.381Z,98489.66
2023-05-06T21:22:26.081Z,98489.62
2023-05-06T21:25:00.426Z,98489.77
2023-05-06T21:27:33.694Z,98490.99
2023-05-06T21:30:06.676Z,98494.02
2023-05-06T21:32:38.990Z,98495.54
2023-05-06T21:35:13.486Z,98491.30
2023-05-06T21:37:46.737Z,98489.92
2023-05-06T21:40:21.569Z,98485.08
2023-05-06T21:42:54.742Z,98493.16
2023-05-06T21:45:28.441Z,98495.96
2023-05-06T21:48:03.148Z,98500.20
2023-05-06T21:50:37.100Z,98505.16
2023-05-06T21:53:15.126Z,98500.80
2023-05-06T21:55:52.052Z,98498.58
2023-05-06T21:58:27.733Z,98503.52
2023-05-06T22:01:05.765Z,98504.69
2023-05-06T22:03:42.599Z,98501.52
2023-05-06T22:06:23.699Z,98505.89
2023-05-06T22:08:59.807Z,98509.38
2023-05-06T22:11:41.017Z,98512.23
2023-05-06T22:14:16.158Z,98516.98
2023-05-06T22:16:52.770Z,98514.85
2023-05-06T22:19:24.946Z,98511.98
2023-05-06T22:21:57.673Z,98511.80
2023-05-06T22:24:30.907Z,98512.17
2023-05-06T22:27:03.175Z,98512.64
2023-05-06T22:29:36.157Z,98512.17
2023-05-06T22:32:08.811Z,98516.17
2023-05-06T22:34:45.964Z,98520.55
2023-05-06T22:37:18.142Z,98512.85
2023-05-06T22:39:50.892Z,98517.15
2023-05-06T22:42:23.443Z,98517.67
2023-05-06T22:44:55.579Z,98517.73
2023-05-06T22:47:28.346Z,98511.30
2023-05-06T22:50:00.527Z,98507.77
2023-05-06T22:52:33.005Z,98507.45
2023-05-06T22:55:05.961Z,98507.43
2023-05-06T22:57:38.731Z,98502.75
2023-05-06T23:00:13.847Z,98507.85
2023-05-06T23:02:46.333Z,98511.07
2023-05-06T23:05:18.584Z,98513.36
2023-05-06T23:07:50.779Z,98512.91
2023-05-06T23:10:25.127Z,98516.96
2023-05-06T23:12:57.813Z,98519.52
2023-05-06T23:15:30.383Z,98526.23
2023-05-06T23:18:02.625Z,98529.31
2023-05-06T23:20:34.951Z,98532.30
2023-05-06T23:23:10.648Z,98539.23
2023-05-06T23:25:42.970Z,98539.02
2023-05-06T23:28:15.292Z,98543.80
2023-05-06T23:30:47.639Z,98544.52
2023-05-06T23:33:19.887Z,98540.80
2023-05-06T23:35:52.074Z,98539.91
2023-05-06T23:38:24.188Z,98539.14
2023-05-06T23:40:56.584Z,98537.98
2023-05-06T23:43:28.700Z,98537.77
2023-05-06T23:49:15.624Z,98545.10
2023-05-06T23:51:50.556Z,98538.92
2023-05-06T23:54:23.069Z,98540.89
2023-05-06T23:56:55.843Z,98542.06
2023-05-06T23:59:30.661Z,98542.65
